createdAt,value
2017-09-29T00:00:02.877Z,95.60
2017-09-29T00:02:30.639Z,95.80
2017-09-29T00:04:58.262Z,95.90
2017-09-29T00:07:25.807Z,95.80
2017-09-29T00:09:53.357Z,95.70
2017-09-29T00:12:21.638Z,95.50
2017-09-29T00:14:49.162Z,95.50
2017-09-29T00:17:16.676Z,95.50
2017-09-29T00:19:44.220Z,95.80
2017-09-29T00:22:11.800Z,95.50
2017-09-29T00:24:39.313Z,95.50
2017-09-29T00:27:06.830Z,95.40
2017-09-29T00:29:34.332Z,95.30
2017-09-29T00:32:02.665Z,95.60
2017-09-29T00:34:30.231Z,95.50
2017-09-29T00:36:57.782Z,95.40
2017-09-29T00:39:25.298Z,95.50
2017-09-29T00:41:53.597Z,95.30
2017-09-29T00:44:21.106Z,95.30
2017-09-29T00:46:48.624Z,95.20
2017-09-29T00:49:16.132Z,95.50
2017-09-29T00:51:43.674Z,95.70
2017-09-29T00:54:11.230Z,95.70
2017-09-29T00:56:38.735Z,95.50
2017-09-29T00:59:07.051Z,95.30
2017-09-29T01:01:34.583Z,95.30
2017-09-29T01:04:02.169Z,95.40
2017-09-29T01:06:29.711Z,95.40
2017-09-29T01:08:57.221Z,95.30
2017-09-29T01:11:24.749Z,95.20
2017-09-29T01:13:52.286Z,95.00
2017-09-29T01:16:19.798Z,95.00
2017-09-29T01:18:47.320Z,95.00
2017-09-29T01:21:14.922Z,95.00
2017-09-29T01:23:42.473Z,95.00
2017-09-29T01:26:09.996Z,94.70
2017-09-29T01:28:37.513Z,94.60
2017-09-29T01:31:05.008Z,94.50
2017-09-29T01:33:33.337Z,94.70
2017-09-29T01:36:00.854Z,94.70
2017-09-29T01:38:28.394Z,94.80
2017-09-29T01:40:55.900Z,94.60
2017-09-29T01:43:23.438Z,94.60
2017-09-29T01:45:50.998Z,94.40
2017-09-29T01:48:18.560Z,94.30
2017-09-29T01:50:46.083Z,94.30
2017-09-29T01:53:14.397Z,94.50
2017-09-29T01:55:41.965Z,94.50
2017-09-29T01:58:09.524Z,94.40
2017-09-29T02:00:37.039Z,94.50
2017-09-29T02:03:05.354Z,94.60
2017-09-29T02:05:33.342Z,94.50
2017-09-29T02:08:00.886Z,95.30
2017-09-29T02:10:28.438Z,94.70
2017-09-29T02:12:55.965Z,95.20
2017-09-29T02:15:24.243Z,95.20
2017-09-29T02:17:51.790Z,95.20
2017-09-29T02:20:19.310Z,95.50
2017-09-29T02:22:46.843Z,95.30
2017-09-29T02:25:14.397Z,95.20
2017-09-29T02:27:41.942Z,95.20
2017-09-29T02:30:09.497Z,94.90
2017-09-29T02:32:37.034Z,95.20
2017-09-29T02:35:04.571Z,95.20
2017-09-29T02:37:32.067Z,95.10
2017-09-29T02:39:59.653Z,95.00
2017-09-29T02:42:27.154Z,95.10
2017-09-29T02:44:54.678Z,95.00
2017-09-29T02:47:22.186Z,95.30
2017-09-29T02:49:49.772Z,95.40
2017-09-29T02:52:18.045Z,95.60
2017-09-29T02:54:46.332Z,95.40
2017-09-29T02:57:16.182Z,95.70
2017-09-29T02:59:44.152Z,95.70
2017-09-29T03:02:12.930Z,95.60
2017-09-29T03:04:41.627Z,95.70
2017-09-29T03:07:09.153Z,95.60
2017-09-29T03:09:37.453Z,95.40
2017-09-29T03:12:05.002Z,95.40
2017-09-29T03:14:33.450Z,95.70
2017-09-29T03:17:01.758Z,95.60
2017-09-29T03:19:29.281Z,95.60
2017-09-29T03:21:56.787Z,95.50
2017-09-29T03:24:24.307Z,95.50
2017-09-29T03:26:52.582Z,95.50
2017-09-29T03:29:20.905Z,95.80
2017-09-29T03:31:48.429Z,95.70
2017-09-29T03:34:16.736Z,95.50
2017-09-29T03:36:44.238Z,95.50
2017-09-29T03:39:11.829Z,95.40
2017-09-29T03:41:40.140Z,95.30
2017-09-29T03:44:07.672Z,95.30
2017-09-29T03:46:35.994Z,95.50
2017-09-29T03:49:03.522Z,95.50
2017-09-29T03:51:34.239Z,95.40
2017-09-29T03:54:02.114Z,95.40
2017-09-29T03:56:30.835Z,95.40
2017-09-29T03:58:58.813Z,95.40
2017-09-29T04:01:26.339Z,95.60
2017-09-29T04:03:54.625Z,95.80
2017-09-29T04:06:22.150Z,95.70
2017-09-29T04:08:50.448Z,95.90
2017-09-29T04:11:18.008Z,95.90
2017-09-29T04:13:45.548Z,95.60
2017-09-29T04:16:13.895Z,96.00
2017-09-29T04:18:41.418Z,96.00
2017-09-29T04:21:08.946Z,96.00
2017-09-29T04:23:36.535Z,96.00
2017-09-29T04:26:04.070Z,96.00
2017-09-29T04:28:32.350Z,96.60
2017-09-29T04:31:00.674Z,96.60
2017-09-29T04:33:28.252Z,96.60
2017-09-29T04:35:55.774Z,96.90
2017-09-29T04:38:23.304Z,97.40
2017-09-29T04:40:51.628Z,96.80
2017-09-29T04:43:19.157Z,96.80
2017-09-29T04:45:47.463Z,96.90
2017-09-29T04:48:15.077Z,96.90
2017-09-29T04:50:42.646Z,96.80
2017-09-29T04:53:10.929Z,96.50
2017-09-29T04:55:38.524Z,96.50
2017-09-29T04:58:06.027Z,96.70
2017-09-29T05:00:34.348Z,96.40
2017-09-29T05:03:01.866Z,96.40
2017-09-29T05:05:29.394Z,96.40
2017-09-29T05:07:56.996Z,96.20
2017-09-29T05:10:25.293Z,96.00
2017-09-29T05:12:52.825Z,96.00
2017-09-29T05:15:21.120Z,96.00
2017-09-29T05:17:48.651Z,96.00
2017-09-29T05:20:16.993Z,96.30
2017-09-29T05:22:44.504Z,96.30
2017-09-29T05:25:12.041Z,96.10
2017-09-29T05:27:39.570Z,96.10
2017-09-29T05:30:07.094Z,96.20
2017-09-29T05:32:35.409Z,96.00
2017-09-29T05:35:02.942Z,96.00
2017-09-29T05:37:31.205Z,96.20
2017-09-29T05:39:59.505Z,96.30
2017-09-29T05:42:27.055Z,96.30
2017-09-29T05:44:54.629Z,96.20
2017-09-29T05:47:22.193Z,96.80
2017-09-29T05:49:49.735Z,96.90
2017-09-29T05:52:17.239Z,96.70
2017-09-29T05:54:44.763Z,96.60
2017-09-29T05:57:12.287Z,96.30
2017-09-29T05:59:40.573Z,96.40
2017-09-29T06:02:08.885Z,96.30
2017-09-29T06:04:36.382Z,96.30
2017-09-29T06:07:03.970Z,96.40
2017-09-29T06:09:32.257Z,96.30
2017-09-29T06:12:00.575Z,96.10
2017-09-29T06:14:28.141Z,96.10
2017-09-29T06:16:55.698Z,96.00
2017-09-29T06:19:23.214Z,95.90
2017-09-29T06:21:50.945Z,96.10
2017-09-29T06:24:18.498Z,96.00
2017-09-29T06:26:46.008Z,95.80
2017-09-29T06:29:14.300Z,95.70
2017-09-29T06:31:41.837Z,95.70
2017-09-29T06:34:09.362Z,95.80
2017-09-29T06:36:36.888Z,95.60
2017-09-29T06:39:04.386Z,95.40
2017-09-29T06:41:31.922Z,95.50
2017-09-29T06:43:59.472Z,95.30
2017-09-29T06:46:26.997Z,95.20
2017-09-29T06:48:54.498Z,95.10
2017-09-29T06:51:22.014Z,94.90
2017-09-29T06:53:49.578Z,95.00
2017-09-29T06:56:17.112Z,95.00
2017-09-29T06:58:45.393Z,94.80
2017-09-29T07:01:13.671Z,94.80
2017-09-29T07:03:41.944Z,94.90
2017-09-29T07:06:10.224Z,94.90
2017-09-29T07:08:38.508Z,94.70
2017-09-29T07:11:06.787Z,94.90
2017-09-29T07:13:34.317Z,94.90
2017-09-29T07:16:01.869Z,94.60
2017-09-29T07:18:29.366Z,94.90
2017-09-29T07:20:57.673Z,94.90
2017-09-29T07:23:25.202Z,94.90
2017-09-29T07:25:54.993Z,94.90
2017-09-29T07:28:24.246Z,94.90
2017-09-29T07:30:53.909Z,94.70
2017-09-29T07:33:22.217Z,95.00
2017-09-29T07:35:49.748Z,95.00
2017-09-29T07:38:18.022Z,94.30
2017-09-29T07:40:46.304Z,94.30
2017-09-29T07:43:14.638Z,94.50
2017-09-29T07:45:42.141Z,94.40
2017-09-29T07:48:10.452Z,94.10
2017-09-29T07:50:37.982Z,94.10
2017-09-29T07:53:06.284Z,93.70
2017-09-29T07:55:33.785Z,93.60
2017-09-29T07:58:01.327Z,93.80
2017-09-29T08:00:28.841Z,93.80
2017-09-29T08:02:57.144Z,93.40
2017-09-29T08:05:24.653Z,93.40
2017-09-29T08:07:52.188Z,93.40
2017-09-29T08:10:19.699Z,92.90
2017-09-29T08:12:47.266Z,93.30
2017-09-29T08:15:14.817Z,92.90
2017-09-29T08:17:42.373Z,93.20
2017-09-29T08:20:10.653Z,92.90
2017-09-29T08:22:38.189Z,92.80
2017-09-29T08:25:05.694Z,92.70
2017-09-29T08:27:33.833Z,93.00
2017-09-29T08:30:02.146Z,93.40
2017-09-29T08:32:30.971Z,93.40
2017-09-29T08:34:58.501Z,92.60
2017-09-29T08:37:26.367Z,93.40
2017-09-29T08:39:53.920Z,92.80
2017-09-29T08:42:21.448Z,92.70
2017-09-29T08:44:49.009Z,92.00
2017-09-29T08:47:17.590Z,92.00
2017-09-29T08:49:46.002Z,92.00
2017-09-29T08:52:13.950Z,92.00
2017-09-29T08:54:41.476Z,92.40
2017-09-29T08:57:09.037Z,90.80
2017-09-29T08:59:37.321Z,81.80
2017-09-29T09:02:04.880Z,81.70
2017-09-29T09:04:32.418Z,75.90
2017-09-29T09:06:59.962Z,74.00
2017-09-29T09:09:27.465Z,69.20
2017-09-29T09:11:54.970Z,67.40
2017-09-29T09:14:22.533Z,68.10
2017-09-29T09:16:50.069Z,68.00
2017-09-29T09:19:17.573Z,65.00
2017-09-29T09:21:45.092Z,62.10
2017-09-29T09:24:12.629Z,62.60
2017-09-29T09:26:40.893Z,65.90
2017-09-29T09:29:08.435Z,65.80
2017-09-29T09:31:35.965Z,63.60
2017-09-29T09:34:03.488Z,61.80
2017-09-29T09:36:31.767Z,60.60
2017-09-29T09:39:00.077Z,58.60
2017-09-29T09:41:27.610Z,58.60
2017-09-29T09:43:55.894Z,56.10
2017-09-29T09:46:23.433Z,55.50
2017-09-29T09:48:51.031Z,53.30
2017-09-29T09:51:18.547Z,52.90
2017-09-29T09:53:46.159Z,53.30
2017-09-29T09:56:13.672Z,52.10
2017-09-29T09:58:41.184Z,52.90
2017-09-29T10:01:08.705Z,50.50
2017-09-29T10:03:37.012Z,47.50
2017-09-29T10:06:04.610Z,47.50
2017-09-29T10:08:32.134Z,46.80
2017-09-29T10:10:59.673Z,46.30
2017-09-29T10:13:27.204Z,46.00
2017-09-29T10:15:55.498Z,44.90
2017-09-29T10:18:23.777Z,41.90
2017-09-29T10:20:52.054Z,40.00
2017-09-29T10:23:20.335Z,40.40
2017-09-29T10:25:48.632Z,38.90
2017-09-29T10:28:16.199Z,38.90
2017-09-29T10:30:43.804Z,39.00
2017-09-29T10:33:11.366Z,41.20
2017-09-29T10:35:38.884Z,42.30
2017-09-29T10:38:06.445Z,40.80
2017-09-29T10:40:33.946Z,40.50
2017-09-29T10:43:01.466Z,39.40
2017-09-29T10:45:29.000Z,38.40
2017-09-29T10:47:56.565Z,37.70
2017-09-29T10:50:24.101Z,37.10
2017-09-29T10:52:52.428Z,39.10
2017-09-29T10:55:19.966Z,39.10
2017-09-29T10:57:47.561Z,38.80
2017-09-29T11:00:15.110Z,36.10
2017-09-29T11:02:42.650Z,35.20
2017-09-29T11:05:10.236Z,34.30
2017-09-29T11:07:37.744Z,33.90
2017-09-29T11:10:06.034Z,34.30
2017-09-29T11:12:33.920Z,34.20
2017-09-29T11:15:02.741Z,33.40
2017-09-29T11:17:30.276Z,33.80
2017-09-29T11:19:57.846Z,33.10
2017-09-29T11:22:25.390Z,33.60
2017-09-29T11:24:52.916Z,34.50
2017-09-29T11:27:21.181Z,33.90
2017-09-29T11:29:49.460Z,34.10
2017-09-29T11:32:17.729Z,36.00
2017-09-29T11:34:45.245Z,36.00
2017-09-29T11:37:12.815Z,35.70
2017-09-29T11:39:41.204Z,36.30
2017-09-29T11:42:08.709Z,36.00
2017-09-29T11:44:37.057Z,36.40
2017-09-29T11:47:04.572Z,36.40
2017-09-29T11:49:32.127Z,36.80
2017-09-29T11:51:59.642Z,36.00
2017-09-29T11:54:27.243Z,35.60
2017-09-29T11:56:54.834Z,33.40
2017-09-29T11:59:22.360Z,33.80
2017-09-29T12:01:49.876Z,31.20
2017-09-29T12:04:17.418Z,32.30
2017-09-29T12:06:44.929Z,31.90
2017-09-29T12:09:13.205Z,32.10
2017-09-29T12:11:40.741Z,32.00
2017-09-29T12:14:08.280Z,31.90
2017-09-29T12:16:37.765Z,34.60
2017-09-29T12:19:05.470Z,33.50
2017-09-29T12:21:35.716Z,35.70
2017-09-29T12:24:04.936Z,35.60
2017-09-29T12:26:32.484Z,35.70
2017-09-29T12:29:00.017Z,36.10
2017-09-29T12:31:28.297Z,35.80
2017-09-29T12:33:56.622Z,34.70
2017-09-29T12:36:24.175Z,34.70
2017-09-29T12:38:51.702Z,35.80
2017-09-29T12:41:19.985Z,36.20
2017-09-29T12:43:48.309Z,36.00
2017-09-29T12:46:15.825Z,36.00
2017-09-29T12:48:44.158Z,35.40
2017-09-29T12:51:11.714Z,35.30
2017-09-29T12:53:39.225Z,35.60
2017-09-29T12:56:06.756Z,36.60
2017-09-29T12:58:34.259Z,36.90
2017-09-29T13:01:01.772Z,36.60
2017-09-29T13:03:29.286Z,37.00
2017-09-29T13:06:06.876Z,37.80
2017-09-29T13:08:34.402Z,38.20
2017-09-29T13:11:02.686Z,40.10
2017-09-29T13:13:31.403Z,40.30
2017-09-29T13:15:58.920Z,40.30
2017-09-29T13:18:27.204Z,39.80
2017-09-29T13:20:55.511Z,40.90
2017-09-29T13:23:23.035Z,40.90
2017-09-29T13:25:51.333Z,43.30
2017-09-29T13:28:18.879Z,42.70
2017-09-29T13:30:47.168Z,42.60
2017-09-29T13:33:14.723Z,42.60
2017-09-29T13:35:43.054Z,41.50
2017-09-29T13:38:10.588Z,41.40
2017-09-29T13:40:38.109Z,41.00
2017-09-29T13:43:06.382Z,42.10
2017-09-29T13:45:34.237Z,42.00
2017-09-29T13:48:01.763Z,42.60
2017-09-29T13:50:29.308Z,42.00
2017-09-29T13:52:56.800Z,43.30
2017-09-29T13:55:24.344Z,43.40
2017-09-29T13:57:51.848Z,43.30
2017-09-29T14:00:19.401Z,42.90
2017-09-29T14:02:47.733Z,43.30
2017-09-29T14:05:15.285Z,43.20
2017-09-29T14:07:42.801Z,44.40
2017-09-29T14:10:10.379Z,44.30
2017-09-29T14:12:38.652Z,45.90
2017-09-29T14:15:06.974Z,46.40
2017-09-29T14:17:34.496Z,45.80
2017-09-29T14:20:02.811Z,44.40
2017-09-29T14:22:30.373Z,44.40
2017-09-29T14:24:57.890Z,44.70
2017-09-29T14:27:25.402Z,45.50
2017-09-29T14:29:52.931Z,47.00
2017-09-29T14:32:20.440Z,47.80
2017-09-29T14:34:47.963Z,49.00
2017-09-29T14:37:15.490Z,49.70
2017-09-29T14:39:43.052Z,48.70
2017-09-29T14:42:10.593Z,49.30
2017-09-29T14:44:38.869Z,48.80
2017-09-29T14:47:07.162Z,49.90
2017-09-29T14:49:34.700Z,49.80
2017-09-29T14:52:03.002Z,50.70
2017-09-29T14:54:30.527Z,50.70
2017-09-29T14:56:58.074Z,51.70
2017-09-29T14:59:25.693Z,51.50
2017-09-29T15:01:54.338Z,51.50
2017-09-29T15:04:21.861Z,50.50
2017-09-29T15:06:49.394Z,50.00
2017-09-29T15:09:17.031Z,51.10
2017-09-29T15:11:45.338Z,51.40
2017-09-29T15:14:12.875Z,51.30
2017-09-29T15:16:41.205Z,52.40
2017-09-29T15:19:08.705Z,52.40
2017-09-29T15:21:37.103Z,51.40
2017-09-29T15:24:04.635Z,51.40
2017-09-29T15:26:32.156Z,52.70
2017-09-29T15:28:59.688Z,52.20
2017-09-29T15:31:27.222Z,51.60
2017-09-29T15:33:55.507Z,51.30
2017-09-29T15:36:23.805Z,51.60
2017-09-29T15:38:51.326Z,51.50
2017-09-29T15:41:18.909Z,51.60
2017-09-29T15:43:47.185Z,52.40
2017-09-29T15:46:15.467Z,52.80
2017-09-29T15:48:43.770Z,52.30
2017-09-29T15:51:11.312Z,52.20
2017-09-29T15:53:38.837Z,52.50
2017-09-29T15:56:06.358Z,54.20
2017-09-29T15:58:34.330Z,54.70
2017-09-29T16:01:01.856Z,53.50
2017-09-29T16:03:29.385Z,53.90
2017-09-29T16:05:56.939Z,54.00
2017-09-29T16:08:24.610Z,54.40
2017-09-29T16:10:52.941Z,55.80
2017-09-29T16:13:20.679Z,55.80
2017-09-29T16:15:48.300Z,56.10
2017-09-29T16:18:16.065Z,56.10
2017-09-29T16:20:43.653Z,56.40
2017-09-29T16:23:11.459Z,57.40
2017-09-29T16:25:39.029Z,57.30
2017-09-29T16:28:06.677Z,57.60
2017-09-29T16:30:34.265Z,58.20
2017-09-29T16:33:01.799Z,57.70
2017-09-29T16:35:29.309Z,58.40
2017-09-29T16:37:56.872Z,58.90
2017-09-29T16:40:25.913Z,60.60
2017-09-29T16:42:53.489Z,60.60
2017-09-29T16:45:21.009Z,60.40
2017-09-29T16:47:48.577Z,60.80
2017-09-29T16:50:16.172Z,59.80
2017-09-29T16:52:43.685Z,60.50
2017-09-29T16:55:11.209Z,61.40
2017-09-29T16:57:38.740Z,61.70
2017-09-29T17:00:06.250Z,64.00
2017-09-29T17:02:34.388Z,64.10
2017-09-29T17:05:01.911Z,62.70
2017-09-29T17:07:29.434Z,64.20
2017-09-29T17:09:56.944Z,64.90
2017-09-29T17:12:24.508Z,66.10
2017-09-29T17:14:52.021Z,66.70
2017-09-29T17:17:20.325Z,67.10
2017-09-29T17:19:47.838Z,67.10
2017-09-29T17:22:15.477Z,67.40
2017-09-29T17:24:43.026Z,68.70
2017-09-29T17:27:10.536Z,68.70
2017-09-29T17:29:38.053Z,69.30
2017-09-29T17:32:05.625Z,70.10
2017-09-29T17:34:33.139Z,70.50
2017-09-29T17:37:00.653Z,71.00
2017-09-29T17:39:28.183Z,70.00
2017-09-29T17:41:55.820Z,71.70
2017-09-29T17:44:23.340Z,72.20
2017-09-29T17:46:50.886Z,72.90
2017-09-29T17:49:18.417Z,73.50
2017-09-29T17:51:45.974Z,73.90
2017-09-29T17:54:13.493Z,74.40
2017-09-29T17:56:43.854Z,74.70
2017-09-29T17:59:11.387Z,74.70
2017-09-29T18:01:38.908Z,74.90
2017-09-29T18:04:06.497Z,75.10
2017-09-29T18:06:34.505Z,76.00
2017-09-29T18:09:02.040Z,76.40
2017-09-29T18:11:30.345Z,76.00
2017-09-29T18:13:57.870Z,76.00
2017-09-29T18:16:26.231Z,76.70
2017-09-29T18:18:53.773Z,77.50
2017-09-29T18:21:21.287Z,76.90
2017-09-29T18:23:48.835Z,77.30
2017-09-29T18:26:17.120Z,77.40
2017-09-29T18:28:44.677Z,77.40
2017-09-29T18:31:12.205Z,78.40
2017-09-29T18:33:39.727Z,78.60
2017-09-29T18:36:07.248Z,79.30
2017-09-29T18:38:35.555Z,78.60
2017-09-29T18:41:08.656Z,78.60
2017-09-29T18:43:37.085Z,79.50
2017-09-29T18:49:02.229Z,80.40
2017-09-29T18:51:29.774Z,80.40
2017-09-29T18:53:58.069Z,80.20
2017-09-29T18:56:25.573Z,80.20
2017-09-29T18:58:53.133Z,79.60
2017-09-29T19:01:20.625Z,78.70
2017-09-29T19:03:48.905Z,79.00
2017-09-29T19:06:17.186Z,79.40
2017-09-29T19:08:47.812Z,79.60
2017-09-29T19:11:16.152Z,80.20
2017-09-29T19:13:43.742Z,79.30
2017-09-29T19:16:11.476Z,79.90
2017-09-29T19:18:40.631Z,79.70
2017-09-29T19:21:09.037Z,80.00
2017-09-29T19:23:36.660Z,79.00
2017-09-29T19:26:05.039Z,80.00
2017-09-29T19:28:33.432Z,80.60
2017-09-29T19:31:01.979Z,80.50
2017-09-29T19:33:30.340Z,80.60
2017-09-29T19:35:57.907Z,80.60
2017-09-29T19:38:25.505Z,81.90
2017-09-29T19:40:53.960Z,84.20
2017-09-29T19:43:23.427Z,83.80
2017-09-29T19:45:51.013Z,83.90
2017-09-29T19:48:18.671Z,85.50
2017-09-29T19:50:46.173Z,86.30
2017-09-29T19:53:14.467Z,86.40
2017-09-29T19:55:42.045Z,86.30
2017-09-29T19:58:09.590Z,86.40
2017-09-29T20:00:37.521Z,85.10
2017-09-29T20:03:05.095Z,85.20
2017-09-29T20:05:33.409Z,86.40
2017-09-29T20:08:01.079Z,86.40
2017-09-29T20:10:28.638Z,85.80
2017-09-29T20:12:56.244Z,85.80
2017-09-29T20:15:24.581Z,85.30
2017-09-29T20:17:52.100Z,85.30
2017-09-29T20:20:20.465Z,86.70
2017-09-29T20:22:48.786Z,86.20
2017-09-29T20:25:16.344Z,86.20
2017-09-29T20:27:43.840Z,85.60
2017-09-29T20:30:11.411Z,85.60
2017-09-29T20:32:38.910Z,86.80
2017-09-29T20:35:06.456Z,86.70
2017-09-29T20:37:34.745Z,86.70
2017-09-29T20:40:02.300Z,86.40
2017-09-29T20:42:29.852Z,86.50
2017-09-29T20:44:58.132Z,86.70
2017-09-29T20:47:26.429Z,86.60
2017-09-29T20:49:53.971Z,86.60
2017-09-29T20:52:22.254Z,87.50
2017-09-29T20:54:49.786Z,87.50
2017-09-29T20:57:17.361Z,86.80
2017-09-29T20:59:45.662Z,86.00
2017-09-29T21:02:13.211Z,86.00
2017-09-29T21:04:40.780Z,86.90
2017-09-29T21:07:08.285Z,87.50
2017-09-29T21:09:35.816Z,87.50
2017-09-29T21:12:03.333Z,88.10
2017-09-29T21:14:31.634Z,87.80
2017-09-29T21:16:59.146Z,87.80
2017-09-29T21:19:27.487Z,87.90
2017-09-29T21:21:55.005Z,87.90
2017-09-29T21:24:23.318Z,87.10
2017-09-29T21:26:51.605Z,87.10
2017-09-29T21:29:19.139Z,87.10
2017-09-29T21:31:47.445Z,88.00
2017-09-29T21:34:14.974Z,88.00
2017-09-29T21:36:43.279Z,87.70
2017-09-29T21:39:10.845Z,87.60
2017-09-29T21:41:38.374Z,86.80
2017-09-29T21:44:05.915Z,86.60
2017-09-29T21:46:35.129Z,86.20
2017-09-29T21:49:02.670Z,86.20
2017-09-29T21:51:30.250Z,86.30
2017-09-29T21:53:57.768Z,86.70
2017-09-29T21:56:25.298Z,86.60
2017-09-29T21:58:52.832Z,85.50
2017-09-29T22:01:20.348Z,85.60
2017-09-29T22:03:47.861Z,86.10
2017-09-29T22:06:15.393Z,85.40
2017-09-29T22:08:43.669Z,85.70
2017-09-29T22:11:11.949Z,86.80
2017-09-29T22:13:40.226Z,86.20
2017-09-29T22:16:08.532Z,86.10
2017-09-29T22:18:36.056Z,86.00
2017-09-29T22:21:04.369Z,86.40
2017-09-29T22:23:31.904Z,86.30
2017-09-29T22:26:00.206Z,86.20
2017-09-29T22:28:27.719Z,86.20
2017-09-29T22:30:55.265Z,86.40
2017-09-29T22:33:23.557Z,86.10
2017-09-29T22:35:51.107Z,85.60
2017-09-29T22:38:18.619Z,85.10
2017-09-29T22:40:46.164Z,85.80
2017-09-29T22:43:13.723Z,85.70
2017-09-29T22:45:41.285Z,85.80
2017-09-29T22:48:08.821Z,85.60
2017-09-29T22:50:37.106Z,84.20
2017-09-29T22:53:04.648Z,84.20
2017-09-29T22:55:32.180Z,83.70
2017-09-29T22:57:59.684Z,85.30
2017-09-29T23:00:27.961Z,84.70
2017-09-29T23:02:56.240Z,84.60
2017-09-29T23:05:24.548Z,84.50
2017-09-29T23:07:52.080Z,84.30
2017-09-29T23:10:20.356Z,84.70
2017-09-29T23:12:48.629Z,84.90
2017-09-29T23:15:16.920Z,85.00
2017-09-29T23:17:45.224Z,84.60
2017-09-29T23:20:12.753Z,84.60
2017-09-29T23:22:41.004Z,84.90
2017-09-29T23:25:08.567Z,84.70
2017-09-29T23:27:36.117Z,84.50
2017-09-29T23:30:03.641Z,84.50
2017-09-29T23:32:31.171Z,84.40
2017-09-29T23:34:58.689Z,84.10
2017-09-29T23:37:26.232Z,84.30
2017-09-29T23:39:53.758Z,84.70
2017-09-29T23:42:21.322Z,85.00
2017-09-29T23:44:48.829Z,85.40
2017-09-29T23:47:16.353Z,85.40
2017-09-29T23:49:43.893Z,85.50
2017-09-29T23:52:11.984Z,85.90
2017-09-29T23:54:40.304Z,86.00
2017-09-29T23:57:08.605Z,86.40
2017-09-29T23:59:36.875Z,86.60
